createdAt,value
2023-02-12T00:01:17.974Z,100.00
2023-02-12T00:05:23.353Z,100.00
2023-02-12T00:09:26.273Z,100.00
2023-02-12T00:13:32.096Z,100.00
2023-02-12T00:17:35.291Z,100.00
2023-02-12T00:21:39.638Z,100.00
2023-02-12T00:25:43.771Z,100.00
2023-02-12T00:29:46.724Z,100.00
2023-02-12T00:33:49.815Z,100.00
2023-02-12T00:37:54.100Z,100.00
2023-02-12T00:41:57.329Z,100.00
2023-02-12T00:46:00.887Z,100.00
2023-02-12T00:50:04.590Z,100.00
2023-02-12T00:54:08.859Z,100.00
2023-02-12T00:58:11.993Z,100.00
2023-02-12T01:02:15.011Z,100.00
2023-02-12T01:06:18.038Z,100.00
2023-02-12T01:10:26.276Z,100.00
2023-02-12T01:14:29.644Z,100.00
2023-02-12T01:18:33.284Z,100.00
2023-02-12T01:22:36.651Z,100.00
2023-02-12T01:26:41.115Z,100.00
2023-02-12T01:30:44.310Z,100.00
2023-02-12T01:34:47.237Z,100.00
2023-02-12T01:38:51.774Z,100.00
2023-02-12T01:42:57.050Z,100.00
2023-02-12T01:47:03.265Z,100.00
2023-02-12T01:51:08.472Z,100.00
2023-02-12T01:55:13.008Z,100.00
2023-02-12T01:59:19.721Z,100.00
2023-02-12T02:03:22.917Z,100.00
2023-02-12T02:07:26.311Z,100.00
2023-02-12T02:11:47.271Z,100.00
2023-02-12T02:15:57.855Z,100.00
2023-02-12T02:20:40.175Z,100.00
2023-02-12T02:25:09.880Z,100.00
2023-02-12T02:29:28.973Z,100.00
2023-02-12T02:33:42.845Z,100.00
2023-02-12T02:37:51.278Z,100.00
2023-02-12T02:42:11.478Z,100.00
2023-02-12T02:46:21.636Z,100.00
2023-02-12T02:50:30.336Z,100.00
2023-02-12T02:54:38.628Z,100.00
2023-02-12T02:58:45.334Z,100.00
2023-02-12T03:02:53.382Z,100.00
2023-02-12T03:07:03.275Z,100.00
2023-02-12T03:11:11.965Z,100.00
2023-02-12T03:15:22.260Z,100.00
2023-02-12T03:19:30.590Z,100.00
2023-02-12T03:23:40.640Z,100.00
2023-02-12T03:27:48.129Z,100.00
2023-02-12T03:32:04.862Z,100.00
2023-02-12T03:36:17.832Z,100.00
2023-02-12T03:40:29.303Z,100.00
2023-02-12T03:44:48.895Z,100.00
2023-02-12T03:49:00.398Z,100.00
2023-02-12T03:53:03.916Z,100.00
2023-02-12T03:57:11.496Z,100.00
2023-02-12T04:01:15.044Z,100.00
2023-02-12T04:05:20.581Z,100.00
2023-02-12T04:09:25.746Z,100.00
2023-02-12T04:13:40.873Z,100.00
2023-02-12T04:17:51.156Z,100.00
2023-02-12T04:22:13.054Z,100.00
2023-02-12T04:26:24.820Z,100.00
2023-02-12T04:30:36.510Z,100.00
2023-02-12T04:34:48.370Z,100.00
2023-02-12T04:38:56.221Z,100.00
2023-02-12T04:42:59.179Z,100.00
2023-02-12T04:47:03.817Z,100.00
2023-02-12T04:51:06.921Z,100.00
2023-02-12T04:55:09.963Z,100.00
2023-02-12T04:59:13.041Z,100.00
2023-02-12T05:03:17.618Z,100.00
2023-02-12T05:07:20.752Z,100.00
2023-02-12T05:11:24.214Z,100.00
2023-02-12T05:15:27.479Z,100.00
2023-02-12T05:19:32.288Z,100.00
2023-02-12T05:23:37.161Z,100.00
2023-02-12T05:27:42.186Z,100.00
2023-02-12T05:31:45.829Z,100.00
2023-02-12T05:35:51.102Z,100.00
2023-02-12T05:39:54.523Z,100.00
2023-02-12T05:43:57.802Z,100.00
2023-02-12T05:48:00.837Z,100.00
2023-02-12T05:52:06.080Z,100.00
2023-02-12T05:56:11.192Z,100.00
2023-02-12T06:00:15.382Z,100.00
2023-02-12T06:04:20.576Z,100.00
2023-02-12T06:08:25.186Z,100.00
2023-02-12T06:12:28.059Z,100.00
2023-02-12T06:16:31.213Z,100.00
2023-02-12T06:20:34.292Z,100.00
2023-02-12T06:24:39.627Z,100.00
2023-02-12T06:28:42.970Z,100.00
2023-02-12T06:32:50.006Z,100.00
2023-02-12T06:36:53.326Z,100.00
2023-02-12T06:40:58.366Z,100.00
2023-02-12T06:45:03.600Z,100.00
2023-02-12T06:49:07.016Z,100.00
2023-02-12T06:53:09.988Z,100.00
2023-02-12T06:57:14.321Z,100.00
2023-02-12T07:01:19.176Z,100.00
2023-02-12T07:05:22.409Z,100.00
2023-02-12T07:09:25.345Z,100.00
2023-02-12T07:13:30.446Z,100.00
2023-02-12T07:17:33.487Z,100.00
2023-02-12T07:21:37.124Z,100.00
2023-02-12T07:25:40.405Z,100.00
2023-02-12T07:29:44.737Z,100.00
2023-02-12T07:33:48.457Z,100.00
2023-02-12T07:37:51.529Z,100.00
2023-02-12T07:41:54.579Z,100.00
2023-02-12T07:46:07.440Z,100.00
2023-02-12T07:50:11.294Z,100.00
2023-02-12T07:54:14.834Z,100.00
2023-02-12T07:58:18.160Z,100.00
2023-02-12T08:02:25.539Z,100.00
2023-02-12T08:06:30.166Z,100.00
2023-02-12T08:10:33.077Z,100.00
2023-02-12T08:14:36.924Z,100.00
2023-02-12T08:18:41.990Z,100.00
2023-02-12T08:22:45.035Z,100.00
2023-02-12T08:26:48.047Z,100.00
2023-02-12T08:30:51.098Z,100.00
2023-02-12T08:34:56.919Z,100.00
2023-02-12T08:39:00.142Z,100.00
2023-02-12T08:43:03.727Z,100.00
2023-02-12T08:47:07.210Z,100.00
2023-02-12T08:51:13.372Z,100.00
2023-02-12T08:55:16.540Z,100.00
2023-02-12T08:59:19.664Z,100.00
2023-02-12T09:03:24.930Z,100.00
2023-02-12T09:07:29.779Z,100.00
2023-02-12T09:11:35.512Z,100.00
2023-02-12T09:15:39.157Z,100.00
2023-02-12T09:19:42.259Z,100.00
2023-02-12T09:23:47.425Z,100.00
2023-02-12T09:27:51.141Z,100.00
2023-02-12T09:31:54.352Z,100.00
2023-02-12T09:36:02.079Z,100.00
2023-02-12T09:40:07.842Z,100.00
2023-02-12T09:44:18.545Z,100.00
2023-02-12T09:48:48.974Z,100.00
2023-02-12T09:52:53.204Z,100.00
2023-02-12T09:57:01.914Z,100.00
2023-02-12T10:01:13.611Z,100.00
2023-02-12T10:05:21.592Z,100.00
2023-02-12T10:09:45.598Z,100.00
2023-02-12T10:13:59.292Z,100.00
2023-02-12T10:18:17.197Z,100.00
2023-02-12T10:22:27.997Z,100.00
2023-02-12T10:26:32.956Z,100.00
2023-02-12T10:30:44.015Z,100.00
2023-02-12T10:34:49.626Z,100.00
2023-02-12T10:38:59.370Z,100.00
2023-02-12T10:43:03.550Z,100.00
2023-02-12T10:47:08.642Z,100.00
2023-02-12T10:51:30.930Z,100.00
2023-02-12T10:55:36.805Z,100.00
2023-02-12T10:59:40.333Z,100.00
2023-02-12T11:03:44.829Z,100.00
2023-02-12T11:07:50.627Z,100.00
2023-02-12T11:11:53.427Z,100.00
2023-02-12T11:15:56.692Z,100.00
2023-02-12T11:20:24.947Z,100.00
2023-02-12T11:24:31.868Z,100.00
2023-02-12T11:28:37.208Z,100.00
2023-02-12T11:32:40.786Z,100.00
2023-02-12T11:36:46.950Z,100.00
2023-02-12T11:40:50.452Z,100.00
2023-02-12T11:44:55.998Z,100.00
2023-02-12T11:49:00.810Z,100.00
2023-02-12T11:53:09.434Z,100.00
2023-02-12T11:57:36.818Z,100.00
2023-02-12T12:01:41.774Z,100.00
2023-02-12T12:05:49.286Z,100.00
2023-02-12T12:10:01.281Z,100.00
2023-02-12T12:14:10.539Z,100.00
2023-02-12T12:18:44.333Z,100.00
2023-02-12T12:22:55.252Z,100.00
2023-02-12T12:27:14.195Z,100.00
2023-02-12T12:31:21.073Z,100.00
2023-02-12T12:35:37.513Z,100.00
2023-02-12T12:39:54.898Z,100.00
2023-02-12T12:44:16.719Z,100.00
2023-02-12T12:48:34.771Z,100.00
2023-02-12T12:53:01.677Z,100.00
2023-02-12T12:57:11.625Z,100.00
2023-02-12T13:01:38.606Z,100.00
2023-02-12T13:06:27.598Z,100.00
2023-02-12T13:10:36.831Z,100.00
2023-02-12T13:14:48.397Z,100.00
2023-02-12T13:19:00.688Z,100.00
2023-02-12T13:23:10.597Z,99.71
2023-02-12T13:27:17.737Z,99.26
2023-02-12T13:31:32.961Z,98.85
2023-02-12T13:35:43.464Z,98.60
2023-02-12T13:39:50.299Z,97.35
2023-02-12T13:44:11.840Z,97.65
2023-02-12T13:48:45.052Z,98.16
2023-02-12T13:52:53.932Z,98.35
2023-02-12T13:56:59.888Z,98.59
2023-02-12T14:01:04.934Z,98.40
2023-02-12T14:05:18.787Z,98.78
2023-02-12T14:09:29.941Z,99.25
2023-02-12T14:13:37.832Z,99.04
2023-02-12T14:17:52.899Z,98.86
2023-02-12T14:21:56.135Z,97.95
2023-02-12T14:26:04.945Z,98.33
2023-02-12T14:30:28.910Z,99.14
2023-02-12T14:34:40.148Z,99.06
2023-02-12T14:39:02.688Z,99.05
2023-02-12T14:43:26.782Z,99.10
2023-02-12T14:47:53.672Z,99.48
2023-02-12T14:52:01.498Z,99.35
2023-02-12T14:56:09.306Z,99.49
2023-02-12T15:00:26.485Z,99.79
2023-02-12T15:04:33.267Z,99.70
2023-02-12T15:08:45.949Z,99.72
2023-02-12T15:12:55.841Z,99.84
2023-02-12T15:17:10.007Z,99.90
2023-02-12T15:21:20.964Z,100.00
2023-02-12T15:25:26.798Z,100.00
2023-02-12T15:29:33.070Z,100.00
2023-02-12T15:33:42.818Z,100.00
2023-02-12T15:37:48.078Z,100.00
2023-02-12T15:41:52.181Z,100.00
2023-02-12T15:45:55.568Z,100.00
2023-02-12T15:50:01.752Z,100.00
2023-02-12T15:54:07.990Z,100.00
2023-02-12T15:58:22.526Z,100.00
2023-02-12T16:02:28.339Z,100.00
2023-02-12T16:06:34.701Z,100.00
2023-02-12T16:10:43.610Z,100.00
2023-02-12T16:14:49.892Z,100.00
2023-02-12T16:19:18.542Z,100.00
2023-02-12T16:23:23.726Z,100.00
2023-02-12T16:27:30.205Z,100.00
2023-02-12T16:31:33.343Z,100.00
2023-02-12T16:35:36.720Z,100.00
2023-02-12T16:40:21.324Z,100.00
2023-02-12T16:44:34.607Z,100.00
2023-02-12T16:48:42.521Z,100.00
2023-02-12T16:52:45.686Z,100.00
2023-02-12T16:56:49.345Z,100.00
2023-02-12T17:00:54.689Z,100.00
2023-02-12T17:05:00.857Z,100.00
2023-02-12T17:09:04.796Z,100.00
2023-02-12T17:13:08.916Z,100.00
2023-02-12T17:17:13.348Z,100.00
2023-02-12T17:21:22.796Z,100.00
2023-02-12T17:25:30.113Z,100.00
2023-02-12T17:29:33.237Z,100.00
2023-02-12T17:33:37.648Z,100.00
2023-02-12T17:37:40.875Z,100.00
2023-02-12T17:41:44.693Z,100.00
2023-02-12T17:45:47.742Z,100.00
2023-02-12T17:49:52.459Z,100.00
2023-02-12T17:53:55.526Z,100.00
2023-02-12T17:57:59.240Z,100.00
2023-02-12T18:02:02.774Z,100.00
2023-02-12T18:06:09.397Z,100.00
2023-02-12T18:10:12.793Z,100.00
2023-02-12T18:14:15.672Z,100.00
2023-02-12T18:18:19.587Z,100.00
2023-02-12T18:22:24.834Z,100.00
2023-02-12T18:26:27.970Z,100.00
2023-02-12T18:30:31.263Z,100.00
2023-02-12T18:34:35.538Z,100.00
2023-02-12T18:38:41.569Z,100.00
2023-02-12T18:42:46.191Z,100.00
2023-02-12T18:46:59.891Z,100.00
2023-02-12T18:51:23.382Z,100.00
2023-02-12T18:55:53.552Z,100.00
2023-02-12T19:00:22.994Z,100.00
2023-02-12T19:04:52.468Z,100.00
2023-02-12T19:09:10.327Z,100.00
2023-02-12T19:13:14.613Z,100.00
2023-02-12T19:17:18.632Z,100.00
2023-02-12T19:21:26.050Z,100.00
2023-02-12T19:25:42.790Z,100.00
2023-02-12T19:29:47.077Z,100.00
2023-02-12T19:33:51.397Z,100.00
2023-02-12T19:37:55.029Z,100.00
2023-02-12T19:41:58.050Z,100.00
2023-02-12T19:46:07.111Z,100.00
2023-02-12T19:50:15.960Z,100.00
2023-02-12T19:54:29.481Z,100.00
2023-02-12T19:58:45.958Z,100.00
2023-02-12T20:03:00.267Z,100.00
2023-02-12T20:07:04.129Z,100.00
2023-02-12T20:11:09.696Z,100.00
2023-02-12T20:15:12.728Z,100.00
2023-02-12T20:19:19.624Z,100.00
2023-02-12T20:23:23.297Z,100.00
2023-02-12T20:27:27.296Z,100.00
2023-02-12T20:31:33.817Z,100.00
2023-02-12T20:35:41.495Z,100.00
2023-02-12T20:39:45.925Z,100.00
2023-02-12T20:43:55.128Z,100.00
2023-02-12T20:48:04.772Z,100.00
2023-02-12T20:52:24.206Z,100.00
2023-02-12T20:56:36.836Z,100.00
2023-02-12T21:00:39.715Z,100.00
2023-02-12T21:04:43.422Z,100.00
2023-02-12T21:08:48.108Z,100.00
2023-02-12T21:12:55.147Z,100.00
2023-02-12T21:17:05.617Z,100.00
2023-02-12T21:21:12.238Z,100.00
2023-02-12T21:25:20.597Z,100.00
2023-02-12T21:29:26.475Z,100.00
2023-02-12T21:33:29.813Z,100.00
2023-02-12T21:37:33.139Z,100.00
2023-02-12T21:41:42.845Z,100.00
2023-02-12T21:46:15.367Z,100.00
2023-02-12T21:50:30.640Z,100.00
2023-02-12T21:54:34.308Z,100.00
2023-02-12T21:58:38.870Z,100.00
2023-02-12T22:02:42.447Z,100.00
2023-02-12T22:06:49.151Z,100.00
2023-02-12T22:10:52.062Z,100.00
2023-02-12T22:14:56.264Z,100.00
2023-02-12T22:19:01.758Z,100.00
2023-02-12T22:23:05.146Z,100.00
2023-02-12T22:27:09.577Z,100.00
2023-02-12T22:31:17.155Z,100.00
2023-02-12T22:35:21.552Z,100.00
2023-02-12T22:39:25.628Z,100.00
2023-02-12T22:43:51.042Z,100.00
2023-02-12T22:48:17.912Z,100.00
2023-02-12T22:52:20.987Z,100.00
2023-02-12T22:56:25.665Z,100.00
2023-02-12T23:00:29.423Z,100.00
2023-02-12T23:04:34.773Z,100.00
2023-02-12T23:08:38.370Z,100.00
2023-02-12T23:12:41.492Z,100.00
2023-02-12T23:16:44.600Z,100.00
2023-02-12T23:20:50.124Z,100.00
2023-02-12T23:24:53.298Z,100.00
2023-02-12T23:28:56.998Z,100.00
2023-02-12T23:33:00.483Z,100.00
2023-02-12T23:37:05.459Z,100.00
2023-02-12T23:41:08.431Z,100.00
2023-02-12T23:45:12.275Z,100.00
2023-02-12T23:49:15.562Z,100.00
2023-02-12T23:53:20.050Z,100.00
2023-02-12T23:57:23.206Z,100.00
